RYR35VV GCTS-LFBO
Flight info
| Callsign | RYR35VV |
|---|---|
| Flight time | 3h 5m |
| Altitude | 36000 |
| Route | KORAL UG5 SONSO DCT NIRAL UN871 OSDAM UM985 BARPA M985 PIMOS M445 ASDIR Y90 USKAR N863 GIROM A29 ASPET |
| Aircraft | B38M/M-SADE3FGHIJ1LRWXY/SB1 |
Departure
| Time | 2026-04-29 14:23 |
|---|---|
| Airport | Tenerife Sur Airport (GCTS) |
Arrival
| Time | 2026-04-29 17:28 |
|---|---|
| Airport | Toulouse-Blagnac Airport (LFBO) |
| Time | Latitude | Longitude | Altitude | Speed | Heading |
|---|---|---|---|---|---|
| 2026-04-29 13:54 | 28.04640 | -16.57896 | 228 ft | 0 kts | 5° |
| 2026-04-29 14:12 | 28.04620 | -16.57899 | 228 ft | 4 kts | 6° |
| 2026-04-29 14:12 | 28.04596 | -16.57900 | 229 ft | 4 kts | 349° |
| 2026-04-29 14:12 | 28.04576 | -16.57887 | 230 ft | 4 kts | 296° |
| 2026-04-29 14:13 | 28.04571 | -16.57858 | 229 ft | 4 kts | 268° |
| 2026-04-29 14:13 | 28.04574 | -16.57828 | 228 ft | 4 kts | 258° |
| 2026-04-29 14:13 | 28.04581 | -16.57798 | 230 ft | 4 kts | 252° |
| 2026-04-29 14:13 | 28.04589 | -16.57772 | 228 ft | 2 kts | 249° |
| 2026-04-29 14:14 | 28.04589 | -16.57771 | 228 ft | 2 kts | 249° |
| 2026-04-29 14:15 | 28.04587 | -16.57779 | 228 ft | 2 kts | 250° |
| 2026-04-29 14:16 | 28.04573 | -16.57821 | 228 ft | 9 kts | 249° |
| 2026-04-29 14:16 | 28.04545 | -16.57899 | 227 ft | 12 kts | 238° |
| 2026-04-29 14:16 | 28.04465 | -16.57915 | 225 ft | 13 kts | 164° |
| 2026-04-29 14:16 | 28.04404 | -16.57919 | 225 ft | 9 kts | 227° |
| 2026-04-29 14:17 | 28.04372 | -16.57987 | 226 ft | 11 kts | 250° |
| 2026-04-29 14:17 | 28.04342 | -16.58076 | 225 ft | 13 kts | 249° |
| 2026-04-29 14:17 | 28.04305 | -16.58185 | 227 ft | 17 kts | 248° |
| 2026-04-29 14:17 | 28.04258 | -16.58318 | 225 ft | 20 kts | 248° |
| 2026-04-29 14:18 | 28.04205 | -16.58473 | 225 ft | 23 kts | 252° |
| 2026-04-29 14:18 | 28.04148 | -16.58654 | 221 ft | 27 kts | 246° |
| 2026-04-29 14:18 | 28.04076 | -16.58870 | 211 ft | 30 kts | 248° |
| 2026-04-29 14:18 | 28.04030 | -16.58981 | 217 ft | 1 kts | 226° |
| 2026-04-29 14:20 | 28.03997 | -16.58998 | 212 ft | 11 kts | 180° |
| 2026-04-29 14:21 | 28.03914 | -16.58896 | 205 ft | 27 kts | 114° |
| 2026-04-29 14:21 | 28.03924 | -16.58749 | 205 ft | 3 kts | 69° |
| 2026-04-29 14:21 | 28.03924 | -16.58748 | 205 ft | 0 kts | 69° |
| 2026-04-29 14:22 | 28.04019 | -16.58474 | 207 ft | 76 kts | 68° |
| 2026-04-29 14:22 | 28.04300 | -16.57672 | 197 ft | 143 kts | 68° |
| 2026-04-29 14:22 | 28.04718 | -16.56459 | 400 ft | 177 kts | 71° |
| 2026-04-29 14:23 | 28.05166 | -16.55121 | 1166 ft | 185 kts | 71° |
| 2026-04-29 14:23 | 28.05646 | -16.53758 | 1988 ft | 187 kts | 69° |
| 2026-04-29 14:23 | 28.06152 | -16.52321 | 2516 ft | 206 kts | 69° |
| 2026-04-29 14:23 | 28.06712 | -16.50708 | 2950 ft | 229 kts | 68° |
| 2026-04-29 14:24 | 28.07323 | -16.48977 | 3290 ft | 254 kts | 69° |
| 2026-04-29 14:24 | 28.07978 | -16.47103 | 4173 ft | 254 kts | 68° |
| 2026-04-29 14:24 | 28.08603 | -16.45153 | 4762 ft | 273 kts | 78° |
| 2026-04-29 14:24 | 28.08808 | -16.42986 | 5525 ft | 278 kts | 86° |
| 2026-04-29 14:25 | 28.08958 | -16.40786 | 6396 ft | 283 kts | 85° |
| 2026-04-29 14:25 | 28.09120 | -16.38543 | 7188 ft | 287 kts | 85° |
| 2026-04-29 14:25 | 28.09284 | -16.36268 | 7956 ft | 293 kts | 86° |
| 2026-04-29 14:25 | 28.09447 | -16.33946 | 8711 ft | 299 kts | 86° |
| 2026-04-29 14:26 | 28.09625 | -16.31575 | 9481 ft | 304 kts | 86° |
| 2026-04-29 14:26 | 28.09802 | -16.29172 | 10210 ft | 310 kts | 86° |
| 2026-04-29 14:26 | 28.09984 | -16.26670 | 10624 ft | 327 kts | 86° |
| 2026-04-29 14:26 | 28.10175 | -16.24045 | 11085 ft | 341 kts | 86° |
| 2026-04-29 14:27 | 28.10371 | -16.21335 | 11706 ft | 348 kts | 86° |
| 2026-04-29 14:27 | 28.10568 | -16.18593 | 12464 ft | 351 kts | 86° |
| 2026-04-29 14:27 | 28.10768 | -16.15815 | 13166 ft | 356 kts | 86° |
| 2026-04-29 14:28 | 28.11171 | -16.10161 | 14530 ft | 364 kts | 86° |
| 2026-04-29 14:28 | 28.11376 | -16.07293 | 15192 ft | 368 kts | 86° |
| 2026-04-29 14:28 | 28.11583 | -16.04387 | 15840 ft | 372 kts | 86° |
| 2026-04-29 14:28 | 28.11682 | -16.01451 | 16454 ft | 375 kts | 95° |
| 2026-04-29 14:29 | 28.11481 | -15.98499 | 17077 ft | 378 kts | 96° |
| 2026-04-29 14:29 | 28.11284 | -15.95510 | 17695 ft | 382 kts | 96° |
| 2026-04-29 14:29 | 28.11083 | -15.92485 | 18296 ft | 386 kts | 96° |
| 2026-04-29 14:29 | 28.10882 | -15.89439 | 18821 ft | 390 kts | 96° |
| 2026-04-29 14:30 | 28.10677 | -15.86372 | 19341 ft | 393 kts | 96° |
| 2026-04-29 14:30 | 28.10470 | -15.83268 | 19846 ft | 396 kts | 96° |
| 2026-04-29 14:30 | 28.10261 | -15.80147 | 20350 ft | 400 kts | 96° |
| 2026-04-29 14:30 | 28.10049 | -15.76998 | 20850 ft | 403 kts | 96° |
| 2026-04-29 14:31 | 28.09835 | -15.73827 | 21357 ft | 406 kts | 96° |
| 2026-04-29 14:31 | 28.09618 | -15.70624 | 21844 ft | 409 kts | 96° |
| 2026-04-29 14:31 | 28.09398 | -15.67391 | 22365 ft | 413 kts | 96° |
| 2026-04-29 14:31 | 28.09177 | -15.64142 | 22870 ft | 416 kts | 96° |
| 2026-04-29 14:32 | 28.08952 | -15.60862 | 23366 ft | 420 kts | 96° |
| 2026-04-29 14:32 | 28.08724 | -15.57554 | 23813 ft | 423 kts | 97° |
| 2026-04-29 14:32 | 28.08495 | -15.54224 | 24229 ft | 426 kts | 97° |
| 2026-04-29 14:32 | 28.08263 | -15.50872 | 24648 ft | 428 kts | 97° |
| 2026-04-29 14:33 | 28.08032 | -15.47498 | 25044 ft | 432 kts | 96° |
| 2026-04-29 14:33 | 28.08205 | -15.44138 | 25455 ft | 437 kts | 79° |
| 2026-04-29 14:33 | 28.09205 | -15.40876 | 25853 ft | 442 kts | 62° |
| 2026-04-29 14:33 | 28.10823 | -15.37899 | 26206 ft | 445 kts | 57° |
| 2026-04-29 14:34 | 28.12523 | -15.34960 | 26562 ft | 448 kts | 56° |
| 2026-04-29 14:34 | 28.14254 | -15.32013 | 26938 ft | 451 kts | 56° |
| 2026-04-29 14:34 | 28.16013 | -15.29049 | 27305 ft | 454 kts | 56° |
| 2026-04-29 14:34 | 28.17784 | -15.26081 | 27662 ft | 457 kts | 56° |
| 2026-04-29 14:35 | 28.19569 | -15.23091 | 28010 ft | 460 kts | 56° |
| 2026-04-29 14:35 | 28.21371 | -15.20074 | 28360 ft | 463 kts | 56° |
| 2026-04-29 14:35 | 28.23180 | -15.17043 | 28702 ft | 465 kts | 56° |
| 2026-04-29 14:35 | 28.24998 | -15.13994 | 29039 ft | 468 kts | 56° |
| 2026-04-29 14:36 | 28.26823 | -15.10931 | 29380 ft | 471 kts | 56° |
| 2026-04-29 14:36 | 28.28041 | -15.08886 | 29604 ft | 472 kts | 56° |
| 2026-04-29 14:36 | 28.29886 | -15.05787 | 29928 ft | 475 kts | 56° |
| 2026-04-29 14:36 | 28.31738 | -15.02672 | 30218 ft | 478 kts | 56° |
| 2026-04-29 14:37 | 28.33603 | -14.99535 | 30500 ft | 480 kts | 56° |
| 2026-04-29 14:37 | 28.35473 | -14.96387 | 30780 ft | 482 kts | 56° |
| 2026-04-29 14:37 | 28.37349 | -14.93225 | 31055 ft | 484 kts | 56° |
| 2026-04-29 14:37 | 28.39234 | -14.90046 | 31324 ft | 486 kts | 56° |
| 2026-04-29 14:38 | 28.41126 | -14.86854 | 31601 ft | 488 kts | 56° |
| 2026-04-29 14:38 | 28.43028 | -14.83641 | 31875 ft | 490 kts | 56° |
| 2026-04-29 14:38 | 28.44933 | -14.80421 | 32140 ft | 492 kts | 56° |
| 2026-04-29 14:38 | 28.46847 | -14.77185 | 32400 ft | 494 kts | 56° |
| 2026-04-29 14:39 | 28.48765 | -14.73939 | 32664 ft | 496 kts | 56° |
| 2026-04-29 14:39 | 28.50688 | -14.70680 | 32931 ft | 498 kts | 56° |
| 2026-04-29 14:39 | 28.52628 | -14.67391 | 33185 ft | 500 kts | 56° |
| 2026-04-29 14:39 | 28.54564 | -14.64105 | 33436 ft | 502 kts | 56° |
| 2026-04-29 14:40 | 28.56511 | -14.60801 | 33751 ft | 502 kts | 56° |
| 2026-04-29 14:40 | 28.58447 | -14.57511 | 34097 ft | 502 kts | 56° |
| 2026-04-29 14:40 | 28.60389 | -14.54208 | 34388 ft | 501 kts | 56° |
| 2026-04-29 14:40 | 28.62328 | -14.50908 | 34670 ft | 501 kts | 56° |
| 2026-04-29 14:41 | 28.64265 | -14.47610 | 34954 ft | 500 kts | 56° |
| 2026-04-29 14:41 | 28.66193 | -14.44322 | 35221 ft | 500 kts | 56° |
| 2026-04-29 14:41 | 28.68123 | -14.41030 | 35487 ft | 500 kts | 56° |
| 2026-04-29 14:41 | 28.70054 | -14.37733 | 35733 ft | 500 kts | 56° |
| 2026-04-29 14:42 | 28.71981 | -14.34440 | 35953 ft | 500 kts | 56° |
| 2026-04-29 14:42 | 28.75840 | -14.27840 | 35990 ft | 499 kts | 56° |
| 2026-04-29 14:43 | 28.79673 | -14.21271 | 35995 ft | 498 kts | 56° |
| 2026-04-29 14:43 | 28.83485 | -14.14730 | 35994 ft | 498 kts | 57° |
| 2026-04-29 14:44 | 28.87314 | -14.08149 | 35991 ft | 498 kts | 57° |
| 2026-04-29 14:44 | 28.91137 | -14.01569 | 35991 ft | 497 kts | 57° |
| 2026-04-29 14:45 | 28.94954 | -13.94989 | 35991 ft | 497 kts | 57° |
| 2026-04-29 14:45 | 28.98765 | -13.88407 | 35992 ft | 496 kts | 57° |
| 2026-04-29 14:46 | 29.02565 | -13.81835 | 35992 ft | 496 kts | 57° |
| 2026-04-29 14:46 | 29.06361 | -13.75260 | 35993 ft | 496 kts | 57° |
| 2026-04-29 14:47 | 29.10156 | -13.68676 | 35992 ft | 495 kts | 57° |
| 2026-04-29 14:47 | 29.13941 | -13.62098 | 35992 ft | 495 kts | 57° |
| 2026-04-29 14:48 | 29.17727 | -13.55509 | 35991 ft | 495 kts | 57° |
| 2026-04-29 14:48 | 29.21502 | -13.48928 | 35991 ft | 495 kts | 57° |
| 2026-04-29 14:49 | 29.25268 | -13.42352 | 35986 ft | 494 kts | 57° |
| 2026-04-29 14:49 | 29.29036 | -13.35764 | 35988 ft | 494 kts | 57° |
| 2026-04-29 14:50 | 29.32792 | -13.29184 | 35990 ft | 494 kts | 57° |
| 2026-04-29 14:50 | 29.36548 | -13.22593 | 35994 ft | 493 kts | 57° |
| 2026-04-29 14:51 | 29.40298 | -13.16004 | 35993 ft | 493 kts | 57° |
| 2026-04-29 14:51 | 29.44043 | -13.09414 | 35989 ft | 493 kts | 57° |
| 2026-04-29 14:52 | 29.47784 | -13.02818 | 35991 ft | 493 kts | 57° |
| 2026-04-29 14:52 | 29.51525 | -12.96213 | 35991 ft | 493 kts | 57° |
| 2026-04-29 14:53 | 29.55233 | -12.89656 | 35988 ft | 493 kts | 57° |
| 2026-04-29 14:53 | 29.58990 | -12.83001 | 35989 ft | 493 kts | 57° |
| 2026-04-29 14:54 | 29.62713 | -12.76399 | 35987 ft | 493 kts | 57° |
| 2026-04-29 14:54 | 29.66443 | -12.69774 | 35987 ft | 493 kts | 57° |
| 2026-04-29 14:55 | 29.70133 | -12.63209 | 35986 ft | 493 kts | 57° |
| 2026-04-29 14:55 | 29.73899 | -12.56623 | 35985 ft | 493 kts | 56° |
| 2026-04-29 14:56 | 29.77763 | -12.50109 | 35983 ft | 493 kts | 56° |
| 2026-04-29 14:56 | 29.81616 | -12.43580 | 35986 ft | 493 kts | 56° |
| 2026-04-29 14:57 | 29.85458 | -12.37059 | 35984 ft | 492 kts | 56° |
| 2026-04-29 14:57 | 29.89304 | -12.30521 | 35982 ft | 492 kts | 56° |
| 2026-04-29 14:58 | 29.93140 | -12.23989 | 35978 ft | 493 kts | 56° |
| 2026-04-29 14:58 | 29.96979 | -12.17442 | 35980 ft | 493 kts | 56° |
| 2026-04-29 14:59 | 30.00827 | -12.10910 | 35977 ft | 492 kts | 52° |
| 2026-04-29 14:59 | 30.03157 | -12.08039 | 35993 ft | 489 kts | 41° |
| 2026-04-29 14:59 | 30.05617 | -12.05312 | 35968 ft | 491 kts | 43° |
| 2026-04-29 15:00 | 30.10513 | -11.99812 | 35980 ft | 491 kts | 42° |
| 2026-04-29 15:00 | 30.15418 | -11.94317 | 35980 ft | 491 kts | 42° |
| 2026-04-29 15:01 | 30.20317 | -11.88822 | 35982 ft | 491 kts | 42° |
| 2026-04-29 15:01 | 30.25211 | -11.83324 | 35982 ft | 491 kts | 42° |
| 2026-04-29 15:02 | 30.30104 | -11.77820 | 35979 ft | 490 kts | 42° |
| 2026-04-29 15:02 | 30.34989 | -11.72315 | 35978 ft | 490 kts | 42° |
| 2026-04-29 15:03 | 30.39873 | -11.66805 | 35978 ft | 490 kts | 42° |
| 2026-04-29 15:03 | 30.44755 | -11.61289 | 35974 ft | 490 kts | 42° |
| 2026-04-29 15:04 | 30.49620 | -11.55780 | 35985 ft | 490 kts | 42° |
| 2026-04-29 15:04 | 30.54492 | -11.50262 | 35984 ft | 489 kts | 42° |
| 2026-04-29 15:05 | 30.59344 | -11.44756 | 35978 ft | 487 kts | 42° |
| 2026-04-29 15:05 | 30.64190 | -11.39247 | 35980 ft | 487 kts | 42° |
| 2026-04-29 15:06 | 30.68991 | -11.33782 | 35980 ft | 486 kts | 42° |
| 2026-04-29 15:06 | 30.73816 | -11.28282 | 35979 ft | 486 kts | 42° |
| 2026-04-29 15:07 | 30.78630 | -11.22786 | 35978 ft | 485 kts | 42° |
| 2026-04-29 15:07 | 30.83454 | -11.17269 | 35973 ft | 485 kts | 42° |
| 2026-04-29 15:08 | 30.88260 | -11.11767 | 35975 ft | 485 kts | 42° |
| 2026-04-29 15:08 | 30.93067 | -11.06253 | 35976 ft | 484 kts | 42° |
| 2026-04-29 15:09 | 30.97858 | -11.00752 | 35976 ft | 484 kts | 42° |
| 2026-04-29 15:09 | 31.02658 | -10.95230 | 35977 ft | 484 kts | 42° |
| 2026-04-29 15:10 | 31.07443 | -10.89718 | 35972 ft | 483 kts | 42° |
| 2026-04-29 15:10 | 31.12225 | -10.84201 | 35972 ft | 483 kts | 42° |
| 2026-04-29 15:11 | 31.16994 | -10.78691 | 35971 ft | 483 kts | 42° |
| 2026-04-29 15:11 | 31.21768 | -10.73166 | 35970 ft | 483 kts | 42° |
| 2026-04-29 15:12 | 31.26533 | -10.67645 | 35970 ft | 482 kts | 42° |
| 2026-04-29 15:12 | 31.31294 | -10.62118 | 35970 ft | 482 kts | 42° |
| 2026-04-29 15:13 | 31.36048 | -10.56593 | 35967 ft | 482 kts | 42° |
| 2026-04-29 15:13 | 31.40802 | -10.51058 | 35965 ft | 481 kts | 42° |
| 2026-04-29 15:14 | 31.45547 | -10.45526 | 35968 ft | 481 kts | 42° |
| 2026-04-29 15:14 | 31.50286 | -10.39993 | 35969 ft | 481 kts | 42° |
| 2026-04-29 15:15 | 31.55016 | -10.34462 | 35968 ft | 480 kts | 42° |
| 2026-04-29 15:15 | 31.59738 | -10.28931 | 35966 ft | 480 kts | 43° |
| 2026-04-29 15:16 | 31.64452 | -10.23401 | 35965 ft | 479 kts | 43° |
| 2026-04-29 15:16 | 31.69170 | -10.17859 | 35967 ft | 479 kts | 43° |
| 2026-04-29 15:17 | 31.73872 | -10.12327 | 35967 ft | 479 kts | 43° |
| 2026-04-29 15:17 | 31.78570 | -10.06791 | 35964 ft | 478 kts | 43° |
| 2026-04-29 15:18 | 31.83235 | -10.01285 | 35964 ft | 478 kts | 43° |
| 2026-04-29 15:18 | 31.87954 | -9.95707 | 35963 ft | 477 kts | 43° |
| 2026-04-29 15:19 | 31.92640 | -9.90161 | 35963 ft | 477 kts | 43° |
| 2026-04-29 15:19 | 31.97279 | -9.84661 | 35968 ft | 477 kts | 43° |
| 2026-04-29 15:20 | 32.01953 | -9.79111 | 35967 ft | 477 kts | 43° |
| 2026-04-29 15:20 | 32.06617 | -9.73565 | 35966 ft | 476 kts | 43° |
| 2026-04-29 15:21 | 32.11278 | -9.68013 | 35964 ft | 476 kts | 43° |
| 2026-04-29 15:21 | 32.15938 | -9.62454 | 35965 ft | 476 kts | 43° |
| 2026-04-29 15:22 | 32.20581 | -9.56906 | 35963 ft | 476 kts | 44° |
| 2026-04-29 15:22 | 32.25237 | -9.51336 | 35962 ft | 476 kts | 44° |
| 2026-04-29 15:23 | 32.29872 | -9.45780 | 35962 ft | 475 kts | 44° |
| 2026-04-29 15:23 | 32.33736 | -9.41144 | 35962 ft | 475 kts | 44° |
| 2026-04-29 15:24 | 32.38373 | -9.35571 | 35956 ft | 475 kts | 44° |
| 2026-04-29 15:24 | 32.43007 | -9.29993 | 35953 ft | 475 kts | 44° |
| 2026-04-29 15:25 | 32.47637 | -9.24411 | 35958 ft | 475 kts | 44° |
| 2026-04-29 15:25 | 32.52271 | -9.18816 | 35959 ft | 475 kts | 44° |
| 2026-04-29 15:26 | 32.56891 | -9.13228 | 35958 ft | 475 kts | 44° |
| 2026-04-29 15:26 | 32.61519 | -9.07622 | 35962 ft | 475 kts | 44° |
| 2026-04-29 15:27 | 32.66146 | -9.02009 | 35956 ft | 475 kts | 44° |
| 2026-04-29 15:27 | 32.70760 | -8.96402 | 35960 ft | 475 kts | 44° |
| 2026-04-29 15:28 | 32.75382 | -8.90778 | 35958 ft | 476 kts | 44° |
| 2026-04-29 15:28 | 32.80000 | -8.85148 | 35957 ft | 476 kts | 44° |
| 2026-04-29 15:29 | 32.84623 | -8.79505 | 35956 ft | 476 kts | 44° |
| 2026-04-29 15:30 | 32.93861 | -8.68202 | 35961 ft | 476 kts | 44° |
| 2026-04-29 15:30 | 32.98473 | -8.62547 | 35954 ft | 477 kts | 44° |
| 2026-04-29 15:31 | 33.03067 | -8.56905 | 35957 ft | 477 kts | 44° |
| 2026-04-29 15:31 | 33.07684 | -8.51226 | 35957 ft | 477 kts | 44° |
| 2026-04-29 15:32 | 33.12300 | -8.45538 | 35955 ft | 478 kts | 44° |
| 2026-04-29 15:32 | 33.16922 | -8.39835 | 35959 ft | 478 kts | 44° |
| 2026-04-29 15:33 | 33.21993 | -8.34831 | 35968 ft | 472 kts | 29° |
| 2026-04-29 15:33 | 33.27553 | -8.30603 | 35956 ft | 474 kts | 30° |
| 2026-04-29 15:34 | 33.33132 | -8.26390 | 35956 ft | 475 kts | 30° |
| 2026-04-29 15:34 | 33.38723 | -8.22171 | 35955 ft | 475 kts | 30° |
| 2026-04-29 15:35 | 33.44306 | -8.17953 | 35957 ft | 475 kts | 30° |
| 2026-04-29 15:35 | 33.49898 | -8.13721 | 35952 ft | 475 kts | 30° |
| 2026-04-29 15:36 | 33.55480 | -8.09491 | 35953 ft | 475 kts | 30° |
| 2026-04-29 15:36 | 33.61040 | -8.05269 | 35954 ft | 476 kts | 30° |
| 2026-04-29 15:37 | 33.66662 | -8.00996 | 35955 ft | 476 kts | 30° |
| 2026-04-29 15:37 | 33.72225 | -7.96760 | 35952 ft | 476 kts | 30° |
| 2026-04-29 15:38 | 33.77819 | -7.92494 | 35951 ft | 476 kts | 30° |
| 2026-04-29 15:38 | 33.83412 | -7.88221 | 35951 ft | 477 kts | 30° |
| 2026-04-29 15:39 | 33.89002 | -7.83945 | 35955 ft | 477 kts | 30° |
| 2026-04-29 15:39 | 33.94613 | -7.79645 | 35944 ft | 477 kts | 30° |
| 2026-04-29 15:40 | 34.00209 | -7.75350 | 35947 ft | 477 kts | 30° |
| 2026-04-29 15:40 | 34.05816 | -7.71040 | 35947 ft | 478 kts | 30° |
| 2026-04-29 15:41 | 34.11409 | -7.66734 | 35947 ft | 478 kts | 30° |
| 2026-04-29 15:41 | 34.17021 | -7.62407 | 35947 ft | 478 kts | 30° |
| 2026-04-29 15:42 | 34.22619 | -7.58083 | 35947 ft | 479 kts | 30° |
| 2026-04-29 15:42 | 34.28192 | -7.53772 | 35947 ft | 479 kts | 30° |
| 2026-04-29 15:43 | 34.33807 | -7.49421 | 35946 ft | 479 kts | 30° |
| 2026-04-29 15:43 | 34.39421 | -7.45063 | 35944 ft | 479 kts | 30° |
| 2026-04-29 15:44 | 34.45031 | -7.40703 | 35953 ft | 479 kts | 30° |
| 2026-04-29 15:44 | 34.50645 | -7.36332 | 35944 ft | 480 kts | 30° |
| 2026-04-29 15:45 | 34.56255 | -7.31956 | 35950 ft | 480 kts | 30° |
| 2026-04-29 15:45 | 34.61872 | -7.27568 | 35951 ft | 480 kts | 30° |
| 2026-04-29 15:46 | 34.67488 | -7.23175 | 35950 ft | 480 kts | 30° |
| 2026-04-29 15:46 | 34.73112 | -7.18767 | 35946 ft | 481 kts | 29° |
| 2026-04-29 15:47 | 34.78730 | -7.14357 | 35946 ft | 481 kts | 29° |
| 2026-04-29 15:47 | 34.84351 | -7.09937 | 35949 ft | 481 kts | 29° |
| 2026-04-29 15:48 | 34.89965 | -7.05515 | 35946 ft | 481 kts | 29° |
| 2026-04-29 15:48 | 34.95591 | -7.01077 | 35945 ft | 481 kts | 29° |
| 2026-04-29 15:49 | 35.01212 | -6.96635 | 35945 ft | 481 kts | 29° |
| 2026-04-29 15:49 | 35.06835 | -6.92184 | 35944 ft | 482 kts | 29° |
| 2026-04-29 15:50 | 35.12417 | -6.87759 | 35943 ft | 482 kts | 29° |
| 2026-04-29 15:50 | 35.18034 | -6.83300 | 35947 ft | 482 kts | 29° |
| 2026-04-29 15:51 | 35.23660 | -6.78826 | 35947 ft | 482 kts | 29° |
| 2026-04-29 15:51 | 35.29285 | -6.74345 | 35941 ft | 483 kts | 29° |
| 2026-04-29 15:52 | 35.34565 | -6.69312 | 35927 ft | 488 kts | 49° |
| 2026-04-29 15:52 | 35.38258 | -6.62273 | 35936 ft | 493 kts | 57° |
| 2026-04-29 15:53 | 35.41765 | -6.55047 | 35940 ft | 493 kts | 58° |
| 2026-04-29 15:53 | 35.45287 | -6.47837 | 35934 ft | 493 kts | 56° |
| 2026-04-29 15:54 | 35.48920 | -6.40701 | 35941 ft | 493 kts | 57° |
| 2026-04-29 15:54 | 35.52537 | -6.33543 | 35932 ft | 494 kts | 57° |
| 2026-04-29 15:55 | 35.56137 | -6.26403 | 35940 ft | 494 kts | 57° |
| 2026-04-29 15:55 | 35.59745 | -6.19232 | 35946 ft | 494 kts | 57° |
| 2026-04-29 15:56 | 35.63354 | -6.12043 | 35943 ft | 494 kts | 57° |
| 2026-04-29 15:56 | 35.66964 | -6.04839 | 35940 ft | 494 kts | 57° |
| 2026-04-29 15:57 | 35.70561 | -5.97646 | 35940 ft | 495 kts | 57° |
| 2026-04-29 15:57 | 35.74003 | -5.90364 | 35947 ft | 495 kts | 63° |
| 2026-04-29 15:58 | 35.77048 | -5.82695 | 35928 ft | 496 kts | 63° |
| 2026-04-29 15:58 | 35.80052 | -5.75047 | 35942 ft | 496 kts | 63° |
| 2026-04-29 15:59 | 35.83057 | -5.67394 | 35949 ft | 496 kts | 63° |
| 2026-04-29 15:59 | 35.86129 | -5.59831 | 35951 ft | 497 kts | 63° |
| 2026-04-29 16:00 | 35.89206 | -5.52216 | 35966 ft | 497 kts | 63° |
| 2026-04-29 16:00 | 35.92303 | -5.44527 | 35971 ft | 497 kts | 63° |
| 2026-04-29 16:01 | 35.95356 | -5.36932 | 35965 ft | 497 kts | 63° |
| 2026-04-29 16:01 | 35.98441 | -5.29238 | 35961 ft | 497 kts | 63° |
| 2026-04-29 16:02 | 36.01547 | -5.21683 | 35972 ft | 496 kts | 61° |
| 2026-04-29 16:02 | 36.04723 | -5.14111 | 35949 ft | 497 kts | 62° |
| 2026-04-29 16:03 | 36.07890 | -5.06523 | 35947 ft | 497 kts | 62° |
| 2026-04-29 16:03 | 36.11052 | -4.98932 | 35943 ft | 496 kts | 62° |
| 2026-04-29 16:04 | 36.14212 | -4.91328 | 35931 ft | 497 kts | 59° |
| 2026-04-29 16:04 | 36.16221 | -4.87899 | 35922 ft | 490 kts | 43° |
| 2026-04-29 16:04 | 36.18584 | -4.84854 | 35928 ft | 492 kts | 44° |
| 2026-04-29 16:05 | 36.23288 | -4.78720 | 35931 ft | 491 kts | 43° |
| 2026-04-29 16:05 | 36.28023 | -4.72598 | 35919 ft | 491 kts | 43° |
| 2026-04-29 16:06 | 36.32748 | -4.66483 | 35926 ft | 491 kts | 43° |
| 2026-04-29 16:06 | 36.37467 | -4.60364 | 35922 ft | 491 kts | 43° |
| 2026-04-29 16:07 | 36.42186 | -4.54233 | 35924 ft | 490 kts | 43° |
| 2026-04-29 16:07 | 36.46892 | -4.48107 | 35920 ft | 491 kts | 44° |
| 2026-04-29 16:08 | 36.51569 | -4.42010 | 35915 ft | 490 kts | 43° |
| 2026-04-29 16:08 | 36.56299 | -4.35830 | 35917 ft | 490 kts | 44° |
| 2026-04-29 16:09 | 36.60957 | -4.29733 | 35917 ft | 489 kts | 44° |
| 2026-04-29 16:09 | 36.65641 | -4.23590 | 35918 ft | 489 kts | 44° |
| 2026-04-29 16:10 | 36.70321 | -4.17442 | 35925 ft | 489 kts | 44° |
| 2026-04-29 16:10 | 36.74997 | -4.11287 | 35930 ft | 489 kts | 44° |
| 2026-04-29 16:11 | 36.79667 | -4.05128 | 35941 ft | 488 kts | 44° |
| 2026-04-29 16:11 | 36.84330 | -3.98965 | 35929 ft | 488 kts | 44° |
| 2026-04-29 16:12 | 36.88983 | -3.92805 | 35941 ft | 488 kts | 44° |
| 2026-04-29 16:12 | 36.93638 | -3.86630 | 35946 ft | 487 kts | 44° |
| 2026-04-29 16:13 | 36.98278 | -3.80465 | 35931 ft | 487 kts | 44° |
| 2026-04-29 16:13 | 37.02922 | -3.74283 | 35935 ft | 487 kts | 44° |
| 2026-04-29 16:14 | 37.07550 | -3.68112 | 35944 ft | 486 kts | 44° |
| 2026-04-29 16:14 | 37.11413 | -3.62995 | 35938 ft | 485 kts | 43° |
| 2026-04-29 16:15 | 37.16099 | -3.56916 | 35938 ft | 485 kts | 43° |
| 2026-04-29 16:15 | 37.20801 | -3.50847 | 35937 ft | 485 kts | 43° |
| 2026-04-29 16:16 | 37.25496 | -3.44772 | 35940 ft | 484 kts | 43° |
| 2026-04-29 16:16 | 37.30185 | -3.38691 | 35932 ft | 485 kts | 43° |
| 2026-04-29 16:17 | 37.34867 | -3.32609 | 35925 ft | 484 kts | 43° |
| 2026-04-29 16:17 | 37.39535 | -3.26531 | 35922 ft | 483 kts | 43° |
| 2026-04-29 16:18 | 37.44191 | -3.20458 | 35927 ft | 482 kts | 43° |
| 2026-04-29 16:18 | 37.48840 | -3.14384 | 35928 ft | 481 kts | 44° |
| 2026-04-29 16:19 | 37.53479 | -3.08310 | 35925 ft | 481 kts | 43° |
| 2026-04-29 16:19 | 37.58106 | -3.02242 | 35916 ft | 480 kts | 44° |
| 2026-04-29 16:20 | 37.62729 | -2.96169 | 35920 ft | 480 kts | 44° |
| 2026-04-29 16:20 | 37.67340 | -2.90099 | 35923 ft | 478 kts | 44° |
| 2026-04-29 16:21 | 37.71942 | -2.84031 | 35926 ft | 477 kts | 44° |
| 2026-04-29 16:21 | 37.76523 | -2.77978 | 35932 ft | 477 kts | 44° |
| 2026-04-29 16:22 | 37.81105 | -2.71911 | 35932 ft | 476 kts | 44° |
| 2026-04-29 16:22 | 37.85673 | -2.65852 | 35931 ft | 476 kts | 44° |
| 2026-04-29 16:23 | 37.90238 | -2.59786 | 35941 ft | 475 kts | 44° |
| 2026-04-29 16:23 | 37.94792 | -2.53723 | 35929 ft | 474 kts | 44° |
| 2026-04-29 16:24 | 37.99333 | -2.47665 | 35941 ft | 474 kts | 44° |
| 2026-04-29 16:24 | 38.03838 | -2.41643 | 35937 ft | 474 kts | 44° |
| 2026-04-29 16:25 | 38.08397 | -2.35539 | 35939 ft | 473 kts | 44° |
| 2026-04-29 16:25 | 38.12897 | -2.29501 | 35939 ft | 474 kts | 44° |
| 2026-04-29 16:26 | 38.17418 | -2.23423 | 35941 ft | 473 kts | 44° |
| 2026-04-29 16:26 | 38.21793 | -2.17157 | 35937 ft | 475 kts | 51° |
| 2026-04-29 16:27 | 38.25857 | -2.10540 | 35937 ft | 475 kts | 50° |
| 2026-04-29 16:27 | 38.29969 | -2.03964 | 35924 ft | 475 kts | 50° |
| 2026-04-29 16:28 | 38.34081 | -1.97390 | 35923 ft | 474 kts | 50° |
| 2026-04-29 16:28 | 38.38168 | -1.90790 | 35918 ft | 475 kts | 50° |
| 2026-04-29 16:29 | 38.42236 | -1.84173 | 35919 ft | 474 kts | 50° |
| 2026-04-29 16:29 | 38.46305 | -1.77544 | 35909 ft | 474 kts | 50° |
| 2026-04-29 16:30 | 38.50365 | -1.70917 | 35914 ft | 474 kts | 50° |
| 2026-04-29 16:30 | 38.54422 | -1.64280 | 35911 ft | 474 kts | 50° |
| 2026-04-29 16:31 | 38.58464 | -1.57655 | 35918 ft | 473 kts | 50° |
| 2026-04-29 16:31 | 38.62508 | -1.51013 | 35912 ft | 473 kts | 50° |
| 2026-04-29 16:32 | 38.66545 | -1.44369 | 35917 ft | 472 kts | 50° |
| 2026-04-29 16:32 | 38.70575 | -1.37725 | 35912 ft | 472 kts | 50° |
| 2026-04-29 16:33 | 38.76607 | -1.27754 | 35922 ft | 472 kts | 50° |
| 2026-04-29 16:33 | 38.80590 | -1.21156 | 35918 ft | 471 kts | 50° |
| 2026-04-29 16:34 | 38.84593 | -1.14510 | 35920 ft | 471 kts | 50° |
| 2026-04-29 16:34 | 38.88602 | -1.07840 | 35922 ft | 471 kts | 50° |
| 2026-04-29 16:35 | 38.92592 | -1.01188 | 35926 ft | 471 kts | 50° |
| 2026-04-29 16:35 | 38.96590 | -0.94511 | 35922 ft | 470 kts | 50° |
| 2026-04-29 16:36 | 39.00568 | -0.87851 | 35929 ft | 470 kts | 50° |
| 2026-04-29 16:36 | 39.04552 | -0.81169 | 35923 ft | 470 kts | 50° |
| 2026-04-29 16:37 | 39.08955 | -0.75085 | 35950 ft | 462 kts | 35° |
| 2026-04-29 16:37 | 39.13105 | -0.70635 | 35926 ft | 464 kts | 37° |
| 2026-04-29 16:38 | 39.18864 | -0.64477 | 35933 ft | 463 kts | 37° |
| 2026-04-29 16:38 | 39.23825 | -0.59178 | 35933 ft | 462 kts | 37° |
| 2026-04-29 16:39 | 39.28810 | -0.53973 | 35937 ft | 460 kts | 33° |
| 2026-04-29 16:39 | 39.33953 | -0.49026 | 35934 ft | 460 kts | 34° |
| 2026-04-29 16:40 | 39.39056 | -0.44058 | 35938 ft | 460 kts | 34° |
| 2026-04-29 16:40 | 39.44162 | -0.39073 | 35937 ft | 459 kts | 34° |
| 2026-04-29 16:41 | 39.49256 | -0.34092 | 35939 ft | 459 kts | 34° |
| 2026-04-29 16:41 | 39.54344 | -0.29105 | 35939 ft | 458 kts | 34° |
| 2026-04-29 16:42 | 39.59418 | -0.24124 | 35942 ft | 458 kts | 34° |
| 2026-04-29 16:42 | 39.64498 | -0.19126 | 35940 ft | 458 kts | 34° |
| 2026-04-29 16:43 | 39.69536 | -0.14161 | 35941 ft | 457 kts | 34° |
| 2026-04-29 16:43 | 39.74632 | -0.09129 | 35939 ft | 457 kts | 34° |
| 2026-04-29 16:44 | 39.79653 | -0.04163 | 35941 ft | 457 kts | 34° |
| 2026-04-29 16:44 | 39.84827 | 0.00589 | 35940 ft | 452 kts | 26° |
| 2026-04-29 16:45 | 39.90314 | 0.04629 | 35947 ft | 453 kts | 26° |
| 2026-04-29 16:45 | 39.95789 | 0.08672 | 35950 ft | 453 kts | 26° |
| 2026-04-29 16:46 | 40.01270 | 0.12722 | 35957 ft | 452 kts | 26° |
| 2026-04-29 16:46 | 40.06745 | 0.16777 | 35964 ft | 452 kts | 26° |
| 2026-04-29 16:47 | 40.12217 | 0.20836 | 35966 ft | 452 kts | 27° |
| 2026-04-29 16:47 | 40.17677 | 0.24894 | 35962 ft | 452 kts | 27° |
| 2026-04-29 16:48 | 40.23139 | 0.28961 | 35963 ft | 451 kts | 27° |
| 2026-04-29 16:48 | 40.28596 | 0.33032 | 35958 ft | 451 kts | 27° |
| 2026-04-29 16:49 | 40.34296 | 0.36206 | 35962 ft | 444 kts | 13° |
| 2026-04-29 16:49 | 40.40246 | 0.38521 | 35957 ft | 446 kts | 13° |
| 2026-04-29 16:50 | 40.46205 | 0.40800 | 35952 ft | 446 kts | 13° |
| 2026-04-29 16:50 | 40.52162 | 0.43073 | 35952 ft | 446 kts | 13° |
| 2026-04-29 16:51 | 40.58116 | 0.45347 | 35952 ft | 446 kts | 14° |
| 2026-04-29 16:51 | 40.64069 | 0.47626 | 35944 ft | 445 kts | 14° |
| 2026-04-29 16:52 | 40.70010 | 0.49904 | 35947 ft | 445 kts | 14° |
| 2026-04-29 16:52 | 40.75967 | 0.52192 | 35947 ft | 445 kts | 14° |
| 2026-04-29 16:53 | 40.81903 | 0.54476 | 35951 ft | 445 kts | 14° |
| 2026-04-29 16:53 | 40.87852 | 0.56770 | 35946 ft | 445 kts | 14° |
| 2026-04-29 16:54 | 40.93785 | 0.59063 | 35939 ft | 445 kts | 14° |
| 2026-04-29 16:54 | 40.99721 | 0.61360 | 35946 ft | 444 kts | 14° |
| 2026-04-29 16:55 | 41.05654 | 0.63661 | 35941 ft | 444 kts | 14° |
| 2026-04-29 16:55 | 41.11578 | 0.65961 | 35937 ft | 443 kts | 14° |
| 2026-04-29 16:56 | 41.17499 | 0.68266 | 35935 ft | 443 kts | 14° |
| 2026-04-29 16:56 | 41.23416 | 0.70573 | 35934 ft | 443 kts | 14° |
| 2026-04-29 16:57 | 41.29331 | 0.72882 | 35937 ft | 443 kts | 14° |
| 2026-04-29 16:57 | 41.35243 | 0.75195 | 35932 ft | 442 kts | 14° |
| 2026-04-29 16:58 | 41.41151 | 0.77512 | 35934 ft | 443 kts | 14° |
| 2026-04-29 16:58 | 41.47059 | 0.79839 | 35918 ft | 442 kts | 14° |
| 2026-04-29 16:59 | 41.52963 | 0.82156 | 35934 ft | 442 kts | 14° |
| 2026-04-29 16:59 | 41.58865 | 0.84484 | 35929 ft | 442 kts | 14° |
| 2026-04-29 17:00 | 41.63762 | 0.86417 | 35935 ft | 442 kts | 14° |
| 2026-04-29 17:00 | 41.70625 | 0.89133 | 35938 ft | 442 kts | 14° |
| 2026-04-29 17:01 | 41.75565 | 0.91091 | 35942 ft | 442 kts | 14° |
| 2026-04-29 17:01 | 41.81460 | 0.93433 | 35901 ft | 438 kts | 15° |
| 2026-04-29 17:02 | 41.84335 | 0.94577 | 35714 ft | 426 kts | 14° |
| 2026-04-29 17:02 | 41.87160 | 0.95701 | 35302 ft | 422 kts | 15° |
| 2026-04-29 17:02 | 41.89967 | 0.96823 | 34798 ft | 420 kts | 15° |
| 2026-04-29 17:02 | 41.92761 | 0.97937 | 34306 ft | 417 kts | 15° |
| 2026-04-29 17:03 | 41.95531 | 0.99051 | 33820 ft | 415 kts | 15° |
| 2026-04-29 17:03 | 41.98289 | 1.00152 | 33272 ft | 413 kts | 15° |
| 2026-04-29 17:03 | 42.01005 | 1.01231 | 32786 ft | 410 kts | 15° |
| 2026-04-29 17:03 | 42.03726 | 1.02320 | 32344 ft | 406 kts | 15° |
| 2026-04-29 17:04 | 42.06417 | 1.03416 | 31970 ft | 401 kts | 15° |
| 2026-04-29 17:04 | 42.09122 | 1.04486 | 31467 ft | 399 kts | 15° |
| 2026-04-29 17:04 | 42.11780 | 1.05546 | 31013 ft | 398 kts | 15° |
| 2026-04-29 17:04 | 42.14427 | 1.06389 | 30543 ft | 395 kts | 3° |
| 2026-04-29 17:05 | 42.17179 | 1.06232 | 30095 ft | 390 kts | 352° |
| 2026-04-29 17:05 | 42.19843 | 1.05950 | 29672 ft | 387 kts | 354° |
| 2026-04-29 17:05 | 42.22553 | 1.05685 | 29266 ft | 384 kts | 354° |
| 2026-04-29 17:05 | 42.25166 | 1.05418 | 28874 ft | 380 kts | 354° |
| 2026-04-29 17:06 | 42.27797 | 1.05137 | 28471 ft | 377 kts | 354° |
| 2026-04-29 17:06 | 42.30400 | 1.04856 | 28077 ft | 374 kts | 354° |
| 2026-04-29 17:06 | 42.32985 | 1.04578 | 27698 ft | 371 kts | 354° |
| 2026-04-29 17:06 | 42.35544 | 1.04301 | 27323 ft | 368 kts | 354° |
| 2026-04-29 17:07 | 42.38090 | 1.04026 | 26951 ft | 365 kts | 354° |
| 2026-04-29 17:07 | 42.40613 | 1.03753 | 26574 ft | 363 kts | 354° |
| 2026-04-29 17:07 | 42.43123 | 1.03481 | 26196 ft | 361 kts | 354° |
| 2026-04-29 17:07 | 42.45622 | 1.03209 | 25769 ft | 361 kts | 354° |
| 2026-04-29 17:08 | 42.48119 | 1.02937 | 25425 ft | 358 kts | 353° |
| 2026-04-29 17:08 | 42.50593 | 1.02667 | 25069 ft | 356 kts | 353° |
| 2026-04-29 17:08 | 42.53057 | 1.02402 | 24723 ft | 354 kts | 353° |
| 2026-04-29 17:08 | 42.55507 | 1.02142 | 24368 ft | 352 kts | 353° |
| 2026-04-29 17:09 | 42.57940 | 1.01870 | 24003 ft | 350 kts | 353° |
| 2026-04-29 17:09 | 42.60367 | 1.01602 | 23648 ft | 349 kts | 353° |
| 2026-04-29 17:09 | 42.62782 | 1.01337 | 23249 ft | 348 kts | 353° |
| 2026-04-29 17:09 | 42.65185 | 1.01074 | 22860 ft | 345 kts | 353° |
| 2026-04-29 17:10 | 42.67572 | 1.00813 | 22501 ft | 342 kts | 353° |
| 2026-04-29 17:10 | 42.69929 | 1.00554 | 22169 ft | 339 kts | 353° |
| 2026-04-29 17:10 | 42.72275 | 1.00296 | 21829 ft | 337 kts | 353° |
| 2026-04-29 17:10 | 42.74603 | 1.00042 | 21474 ft | 335 kts | 353° |
| 2026-04-29 17:11 | 42.76921 | 0.99788 | 21143 ft | 332 kts | 354° |
| 2026-04-29 17:11 | 42.79227 | 0.99607 | 20745 ft | 332 kts | 355° |
| 2026-04-29 17:11 | 42.81531 | 0.99431 | 20416 ft | 331 kts | 355° |
| 2026-04-29 17:11 | 42.83825 | 0.99252 | 20091 ft | 329 kts | 355° |
| 2026-04-29 17:12 | 42.86103 | 0.99073 | 19757 ft | 327 kts | 355° |
| 2026-04-29 17:12 | 42.88368 | 0.98899 | 19434 ft | 325 kts | 355° |
| 2026-04-29 17:12 | 42.90620 | 0.98725 | 19111 ft | 323 kts | 355° |
| 2026-04-29 17:12 | 42.92106 | 0.98606 | 18887 ft | 322 kts | 355° |
| 2026-04-29 17:13 | 42.95081 | 0.98369 | 18467 ft | 319 kts | 355° |
| 2026-04-29 17:13 | 42.97300 | 0.98193 | 18122 ft | 318 kts | 355° |
| 2026-04-29 17:13 | 42.99504 | 0.98016 | 17764 ft | 316 kts | 356° |
| 2026-04-29 17:13 | 43.01671 | 0.98205 | 17361 ft | 317 kts | 6° |
| 2026-04-29 17:14 | 43.03878 | 0.98561 | 17039 ft | 313 kts | 5° |
| 2026-04-29 17:14 | 43.06004 | 0.98867 | 16730 ft | 311 kts | 4° |
| 2026-04-29 17:14 | 43.08151 | 0.99159 | 16415 ft | 309 kts | 4° |
| 2026-04-29 17:14 | 43.10281 | 0.99439 | 16090 ft | 307 kts | 4° |
| 2026-04-29 17:15 | 43.12394 | 0.99709 | 15775 ft | 305 kts | 4° |
| 2026-04-29 17:15 | 43.14511 | 0.99977 | 15456 ft | 304 kts | 4° |
| 2026-04-29 17:15 | 43.16611 | 1.00243 | 15138 ft | 302 kts | 4° |
| 2026-04-29 17:15 | 43.18699 | 1.00506 | 14822 ft | 301 kts | 4° |
| 2026-04-29 17:16 | 43.20768 | 1.00767 | 14514 ft | 299 kts | 4° |
| 2026-04-29 17:16 | 43.22835 | 1.01027 | 14201 ft | 297 kts | 4° |
| 2026-04-29 17:16 | 43.24892 | 1.01287 | 13893 ft | 296 kts | 4° |
| 2026-04-29 17:16 | 43.26941 | 1.01544 | 13576 ft | 295 kts | 4° |
| 2026-04-29 17:17 | 43.28980 | 1.01808 | 13231 ft | 293 kts | 4° |
| 2026-04-29 17:17 | 43.31001 | 1.02062 | 12913 ft | 291 kts | 4° |
| 2026-04-29 17:17 | 43.33012 | 1.02314 | 12602 ft | 289 kts | 4° |
| 2026-04-29 17:17 | 43.35010 | 1.02568 | 12296 ft | 287 kts | 4° |
| 2026-04-29 17:18 | 43.36984 | 1.02817 | 12003 ft | 284 kts | 4° |
| 2026-04-29 17:18 | 43.38942 | 1.03064 | 11712 ft | 283 kts | 4° |
| 2026-04-29 17:18 | 43.40908 | 1.03312 | 11418 ft | 284 kts | 4° |
| 2026-04-29 17:18 | 43.42891 | 1.03564 | 11113 ft | 289 kts | 4° |
| 2026-04-29 17:19 | 43.44907 | 1.03819 | 10805 ft | 291 kts | 4° |
| 2026-04-29 17:19 | 43.46928 | 1.04075 | 10500 ft | 292 kts | 4° |
| 2026-04-29 17:19 | 43.48952 | 1.04334 | 10208 ft | 292 kts | 4° |
| 2026-04-29 17:19 | 43.50956 | 1.04591 | 9982 ft | 287 kts | 4° |
| 2026-04-29 17:20 | 43.52941 | 1.04847 | 9674 ft | 286 kts | 3° |
| 2026-04-29 17:20 | 43.54890 | 1.05091 | 9349 ft | 285 kts | 4° |
| 2026-04-29 17:20 | 43.56861 | 1.05341 | 9033 ft | 283 kts | 4° |
| 2026-04-29 17:20 | 43.58816 | 1.05598 | 8728 ft | 282 kts | 3° |
| 2026-04-29 17:21 | 43.60760 | 1.05843 | 8429 ft | 280 kts | 4° |
| 2026-04-29 17:21 | 43.62689 | 1.06093 | 8147 ft | 277 kts | 3° |
| 2026-04-29 17:21 | 43.64597 | 1.06325 | 7892 ft | 274 kts | 3° |
| 2026-04-29 17:21 | 43.66499 | 1.06566 | 7507 ft | 274 kts | 4° |
| 2026-04-29 17:22 | 43.68374 | 1.06808 | 7173 ft | 267 kts | 4° |
| 2026-04-29 17:22 | 43.70194 | 1.07044 | 6865 ft | 259 kts | 4° |
| 2026-04-29 17:22 | 43.71969 | 1.07266 | 6526 ft | 253 kts | 4° |
| 2026-04-29 17:22 | 43.73701 | 1.07488 | 6219 ft | 246 kts | 4° |
| 2026-04-29 17:23 | 43.75374 | 1.07760 | 5888 ft | 240 kts | 15° |
| 2026-04-29 17:23 | 43.76791 | 1.08898 | 5486 ft | 238 kts | 47° |
| 2026-04-29 17:23 | 43.77584 | 1.10846 | 5177 ft | 232 kts | 72° |
| 2026-04-29 17:23 | 43.78073 | 1.12960 | 4923 ft | 230 kts | 72° |
| 2026-04-29 17:24 | 43.78561 | 1.15067 | 4646 ft | 230 kts | 72° |
| 2026-04-29 17:24 | 43.78959 | 1.17212 | 4316 ft | 231 kts | 88° |
| 2026-04-29 17:24 | 43.78580 | 1.19345 | 3980 ft | 232 kts | 122° |
| 2026-04-29 17:24 | 43.77470 | 1.20964 | 3669 ft | 235 kts | 142° |
| 2026-04-29 17:25 | 43.76151 | 1.22324 | 3326 ft | 238 kts | 142° |
| 2026-04-29 17:25 | 43.74826 | 1.23707 | 3046 ft | 237 kts | 142° |
| 2026-04-29 17:25 | 43.73525 | 1.25065 | 2698 ft | 233 kts | 142° |
| 2026-04-29 17:25 | 43.72243 | 1.26412 | 2389 ft | 228 kts | 142° |
| 2026-04-29 17:26 | 43.71001 | 1.27709 | 2047 ft | 220 kts | 142° |
| 2026-04-29 17:26 | 43.69802 | 1.28962 | 1749 ft | 212 kts | 142° |
| 2026-04-29 17:26 | 43.68667 | 1.30146 | 1493 ft | 194 kts | 142° |
| 2026-04-29 17:26 | 43.67645 | 1.31219 | 1279 ft | 175 kts | 141° |
| 2026-04-29 17:27 | 43.66735 | 1.32164 | 1126 ft | 154 kts | 140° |
| 2026-04-29 17:27 | 43.65926 | 1.33019 | 934 ft | 141 kts | 141° |
| 2026-04-29 17:27 | 43.65157 | 1.33808 | 713 ft | 135 kts | 140° |
| 2026-04-29 17:27 | 43.64419 | 1.34584 | 550 ft | 133 kts | 141° |
| 2026-04-29 17:28 | 43.63721 | 1.35315 | 493 ft | 110 kts | 144° |
| 2026-04-29 17:28 | 43.63246 | 1.35805 | 496 ft | 62 kts | 142° |
| 2026-04-29 17:28 | 43.62946 | 1.36120 | 489 ft | 52 kts | 143° |
| 2026-04-29 17:28 | 43.62665 | 1.36411 | 496 ft | 49 kts | 142° |
| 2026-04-29 17:29 | 43.62451 | 1.36646 | 494 ft | 18 kts | 120° |
| 2026-04-29 17:29 | 43.62455 | 1.36826 | 493 ft | 20 kts | 83° |
| 2026-04-29 17:29 | 43.62473 | 1.37021 | 485 ft | 21 kts | 83° |
| 2026-04-29 17:29 | 43.62486 | 1.37160 | 489 ft | 21 kts | 81° |
| 2026-04-29 17:30 | 43.62583 | 1.37377 | 492 ft | 21 kts | 51° |
| 2026-04-29 17:30 | 43.62652 | 1.37507 | 494 ft | 14 kts | 60° |
| 2026-04-29 17:30 | 43.62697 | 1.37602 | 490 ft | 10 kts | 50° |
| 2026-04-29 17:30 | 43.62739 | 1.37655 | 496 ft | 9 kts | 47° |
| 2026-04-29 17:31 | 43.62763 | 1.37696 | 488 ft | 2 kts | 52° |
| 2026-04-29 17:31 | 43.62764 | 1.37699 | 489 ft | 0 kts | 52° |